createdAt,value
2019-04-05T00:00:58.539Z,70.10
2019-04-05T00:03:29.694Z,70.90
2019-04-05T00:06:00.677Z,70.20
2019-04-05T00:08:37.581Z,70.10
2019-04-05T00:11:08.805Z,70.10
2019-04-05T00:13:41.103Z,70.70
2019-04-05T00:16:12.655Z,69.80
2019-04-05T00:18:43.878Z,70.50
2019-04-05T00:21:14.839Z,69.90
2019-04-05T00:23:46.086Z,70.70
2019-04-05T00:26:17.441Z,71.10
2019-04-05T00:28:51.662Z,70.70
2019-04-05T00:31:22.692Z,70.60
2019-04-05T00:33:53.712Z,70.70
2019-04-05T00:36:25.033Z,70.00
2019-04-05T00:38:56.485Z,70.00
2019-04-05T00:41:28.953Z,70.20
2019-04-05T00:44:01.853Z,70.30
2019-04-05T00:46:33.171Z,70.00
2019-04-05T00:49:07.668Z,70.00
2019-04-05T00:51:51.374Z,69.20
2019-04-05T00:54:32.243Z,69.80
2019-04-05T00:57:08.923Z,69.70
2019-04-05T00:59:40.525Z,70.10
2019-04-05T01:02:11.670Z,70.00
2019-04-05T01:04:46.447Z,69.70
2019-04-05T01:07:17.911Z,69.80
2019-04-05T01:09:57.357Z,69.90
2019-04-05T01:12:28.803Z,69.70
2019-04-05T01:14:59.916Z,69.40
2019-04-05T01:17:33.787Z,68.80
2019-04-05T01:20:12.712Z,68.90
2019-04-05T01:22:52.532Z,69.00
2019-04-05T01:25:24.030Z,68.70
2019-04-05T01:27:55.376Z,68.50
2019-04-05T01:30:26.301Z,68.40
2019-04-05T01:32:58.088Z,68.70
2019-04-05T01:35:29.992Z,68.20
2019-04-05T01:38:01.699Z,68.10
2019-04-05T01:40:37.225Z,68.00
2019-04-05T01:43:08.582Z,68.00
2019-04-05T01:45:52.633Z,68.00
2019-04-05T01:48:15.034Z,67.90
2019-04-05T01:50:45.887Z,67.70
2019-04-05T01:53:20.106Z,67.50
2019-04-05T01:56:03.252Z,67.20
2019-04-05T01:58:38.207Z,67.20
2019-04-05T02:01:20.042Z,66.90
2019-04-05T02:03:52.465Z,66.80
2019-04-05T02:06:25.402Z,66.80
2019-04-05T02:08:58.422Z,66.80
2019-04-05T02:11:29.933Z,66.60
2019-04-05T02:14:02.211Z,66.10
2019-04-05T02:16:33.640Z,66.00
2019-04-05T02:19:04.624Z,65.90
2019-04-05T02:21:38.122Z,65.90
2019-04-05T02:24:13.533Z,65.60
2019-04-05T02:26:45.137Z,65.60
2019-04-05T02:29:17.742Z,65.40
2019-04-05T02:31:49.512Z,65.20
2019-04-05T02:34:20.589Z,65.10
2019-04-05T02:36:53.020Z,64.90
2019-04-05T02:39:23.916Z,64.60
2019-04-05T02:41:56.636Z,64.60
2019-04-05T02:44:29.545Z,64.60
2019-04-05T02:47:01.147Z,64.50
2019-04-05T02:49:33.580Z,64.30
2019-04-05T02:52:05.711Z,64.10
2019-04-05T02:54:38.700Z,64.00
2019-04-05T02:57:10.457Z,64.10
2019-04-05T02:59:42.110Z,63.90
2019-04-05T03:02:13.556Z,63.90
2019-04-05T03:04:46.468Z,63.70
2019-04-05T03:07:17.159Z,63.60
2019-04-05T03:09:49.107Z,63.50
2019-04-05T03:12:20.940Z,62.60
2019-04-05T03:14:52.776Z,63.00
2019-04-05T03:17:28.247Z,62.50
2019-04-05T03:20:01.979Z,62.20
2019-04-05T03:22:34.739Z,61.90
2019-04-05T03:25:17.826Z,61.70
2019-04-05T03:27:49.459Z,61.10
2019-04-05T03:30:25.191Z,60.60
2019-04-05T03:32:56.984Z,60.90
2019-04-05T03:35:28.283Z,60.90
2019-04-05T03:38:03.870Z,60.90
2019-04-05T03:40:34.998Z,60.00
2019-04-05T03:43:06.818Z,59.20
2019-04-05T03:45:43.924Z,59.30
2019-04-05T03:48:13.934Z,59.50
2019-04-05T03:50:46.402Z,59.50
2019-04-05T03:53:17.687Z,57.70
2019-04-05T03:55:48.790Z,59.20
2019-04-05T03:58:25.805Z,58.30
2019-04-05T04:00:57.132Z,58.40
2019-04-05T04:03:30.655Z,57.20
2019-04-05T04:06:02.133Z,58.50
2019-04-05T04:08:34.621Z,58.10
2019-04-05T04:11:05.930Z,58.20
2019-04-05T04:13:40.884Z,58.20
2019-04-05T04:16:14.780Z,57.80
2019-04-05T04:18:45.769Z,56.10
2019-04-05T04:21:19.201Z,57.90
2019-04-05T04:23:50.648Z,57.60
2019-04-05T04:33:08.917Z,57.10
2019-04-05T04:35:40.449Z,57.10
2019-04-05T04:38:11.794Z,57.60
2019-04-05T04:40:46.609Z,57.10
2019-04-05T04:43:20.377Z,55.60
2019-04-05T04:45:55.807Z,57.40
2019-04-05T04:48:27.594Z,56.90
2019-04-05T04:51:03.007Z,57.40
2019-04-05T04:53:34.658Z,56.70
2019-04-05T04:56:06.674Z,56.10
2019-04-05T04:58:38.607Z,54.50
2019-04-05T05:01:10.212Z,55.20
2019-04-05T05:03:44.870Z,55.20
2019-04-05T05:06:15.750Z,53.90
2019-04-05T05:08:47.220Z,55.20
2019-04-05T05:11:19.789Z,55.70
2019-04-05T05:13:55.375Z,55.90
2019-04-05T05:16:32.225Z,55.00
2019-04-05T05:19:04.723Z,54.50
2019-04-05T05:21:40.267Z,53.10
2019-04-05T05:24:12.567Z,54.30
2019-04-05T05:26:44.258Z,55.00
2019-04-05T05:29:19.585Z,54.60
2019-04-05T05:31:54.812Z,54.70
2019-04-05T05:34:28.851Z,55.30
2019-04-05T05:37:00.210Z,52.80
2019-04-05T05:39:31.236Z,53.20
2019-04-05T05:42:12.089Z,54.40
2019-04-05T05:44:42.425Z,55.60
2019-04-05T05:47:14.529Z,56.10
2019-04-05T05:49:45.975Z,55.10
2019-04-05T05:52:18.622Z,53.10
2019-04-05T05:54:50.409Z,52.70
2019-04-05T05:57:22.163Z,53.60
2019-04-05T05:59:53.330Z,50.80
2019-04-05T06:02:24.389Z,51.60
2019-04-05T06:04:55.343Z,53.10
2019-04-05T06:07:26.108Z,51.60
2019-04-05T06:09:57.034Z,51.90
2019-04-05T06:12:28.889Z,52.70
2019-04-05T06:15:00.003Z,50.90
2019-04-05T06:17:34.389Z,53.10
2019-04-05T06:20:06.416Z,52.00
2019-04-05T06:22:41.828Z,51.20
2019-04-05T06:25:13.069Z,53.30
2019-04-05T06:27:43.882Z,52.10
2019-04-05T06:30:17.818Z,52.80
2019-04-05T06:33:03.018Z,50.30
2019-04-05T06:35:36.563Z,51.40
2019-04-05T06:38:07.765Z,53.40
2019-04-05T06:40:41.848Z,53.40
2019-04-05T06:43:13.179Z,51.40
2019-04-05T06:45:44.272Z,53.60
2019-04-05T06:51:11.619Z,51.40
2019-04-05T06:53:42.847Z,50.00
2019-04-05T06:56:13.919Z,51.60
2019-04-05T06:58:46.448Z,50.20
2019-04-05T07:01:18.041Z,50.40
2019-04-05T07:03:50.147Z,51.80
2019-04-05T07:06:21.391Z,51.50
2019-04-05T07:08:57.379Z,51.90
2019-04-05T07:11:29.411Z,50.00
2019-04-05T07:14:00.764Z,50.00
2019-04-05T07:16:31.975Z,50.30
2019-04-05T07:19:06.115Z,50.60
2019-04-05T07:21:38.066Z,50.90
2019-04-05T07:24:10.654Z,51.00
2019-04-05T07:26:45.300Z,51.00
2019-04-05T07:29:17.323Z,52.00
2019-04-05T07:31:48.764Z,51.90
2019-04-05T07:34:19.823Z,51.70
2019-04-05T07:36:57.196Z,51.20
2019-04-05T07:39:39.032Z,52.40
2019-04-05T07:42:13.061Z,52.20
2019-04-05T07:44:46.723Z,51.80
2019-04-05T07:47:21.391Z,51.90
2019-04-05T07:49:53.873Z,50.80
2019-04-05T07:52:26.238Z,50.20
2019-04-05T07:54:57.114Z,51.40
2019-04-05T07:57:28.402Z,51.50
2019-04-05T07:59:59.682Z,51.30
2019-04-05T08:02:32.583Z,51.10
2019-04-05T08:05:09.088Z,50.50
2019-04-05T08:07:42.507Z,49.70
2019-04-05T08:10:13.937Z,50.60
2019-04-05T08:12:45.359Z,50.40
2019-04-05T08:15:19.019Z,50.10
2019-04-05T08:17:50.414Z,50.00
2019-04-05T08:20:25.393Z,49.40
2019-04-05T08:22:59.710Z,49.50
2019-04-05T08:25:34.715Z,49.60
2019-04-05T08:28:08.241Z,50.30
2019-04-05T08:37:00.384Z,52.00
2019-04-05T08:39:33.727Z,51.40
2019-04-05T08:42:05.321Z,52.50
2019-04-05T08:44:36.308Z,52.90
2019-04-05T08:47:07.534Z,53.00
2019-04-05T08:49:38.652Z,53.20
2019-04-05T08:52:09.783Z,53.90
2019-04-05T08:54:41.076Z,53.40
2019-04-05T08:57:12.221Z,53.40
2019-04-05T08:59:43.722Z,53.30
2019-04-05T09:02:15.056Z,53.80
2019-04-05T09:04:46.391Z,54.40
2019-04-05T09:07:21.077Z,54.50
2019-04-05T09:09:52.578Z,54.10
2019-04-05T09:12:23.942Z,54.40
2019-04-05T09:14:57.625Z,54.20
2019-04-05T09:17:34.771Z,54.60
2019-04-05T09:20:11.488Z,55.00
2019-04-05T09:22:43.393Z,55.20
2019-04-05T09:25:15.127Z,55.70
2019-04-05T09:27:46.807Z,55.80
2019-04-05T09:30:19.450Z,56.30
2019-04-05T09:32:50.804Z,57.10
2019-04-05T09:35:23.308Z,57.10
2019-04-05T09:37:58.217Z,57.80
2019-04-05T09:40:32.964Z,57.00
2019-04-05T09:43:04.034Z,57.00
2019-04-05T09:45:35.238Z,56.40
2019-04-05T09:48:07.621Z,56.60
2019-04-05T09:50:38.703Z,55.60
2019-04-05T09:53:17.471Z,55.80
2019-04-05T09:55:49.870Z,55.40
2019-04-05T09:58:20.803Z,56.20
2019-04-05T10:00:55.578Z,56.30
2019-04-05T10:03:25.868Z,56.50
2019-04-05T10:06:07.076Z,56.40
2019-04-05T10:08:38.119Z,56.90
2019-04-05T10:15:29.736Z,59.30
2019-04-05T10:18:00.943Z,59.70
2019-04-05T10:20:33.405Z,61.70
2019-04-05T10:23:04.597Z,62.90
2019-04-05T10:25:37.191Z,61.90
2019-04-05T10:28:08.247Z,62.10
2019-04-05T10:30:39.079Z,65.10
2019-04-05T10:33:10.281Z,63.30
2019-04-05T10:35:41.272Z,64.10
2019-04-05T10:38:12.225Z,65.20
2019-04-05T10:40:43.591Z,63.20
2019-04-05T10:43:15.461Z,63.70
2019-04-05T10:45:48.488Z,64.20
2019-04-05T10:48:19.343Z,64.40
2019-04-05T10:50:50.611Z,64.50
2019-04-05T10:53:21.804Z,66.40
2019-04-05T10:55:52.755Z,65.80
2019-04-05T10:58:24.804Z,65.90
2019-04-05T11:00:55.874Z,65.70
2019-04-05T11:03:27.454Z,66.50
2019-04-05T11:05:58.676Z,67.60
2019-04-05T11:08:29.797Z,67.20
2019-04-05T11:11:00.953Z,68.00
2019-04-05T11:13:32.169Z,67.20
2019-04-05T11:16:04.133Z,68.40
2019-04-05T11:18:35.603Z,68.00
2019-04-05T11:21:10.142Z,70.40
2019-04-05T11:23:41.025Z,69.60
2019-04-05T11:26:11.942Z,69.90
2019-04-05T11:28:43.331Z,70.90
2019-04-05T11:31:14.416Z,70.30
2019-04-05T11:33:45.566Z,70.30
2019-04-05T11:36:18.345Z,68.70
2019-04-05T11:38:50.796Z,67.70
2019-04-05T11:41:22.715Z,68.30
2019-04-05T11:43:55.845Z,67.60
2019-04-05T11:46:27.345Z,67.10
2019-04-05T11:48:59.284Z,67.40
2019-04-05T11:51:30.359Z,66.30
2019-04-05T11:54:01.584Z,65.70
2019-04-05T11:56:32.862Z,65.60
2019-04-05T11:59:05.504Z,65.40
2019-04-05T12:01:38.300Z,65.10
2019-04-05T12:04:09.353Z,65.00
2019-04-05T12:06:40.132Z,64.60
2019-04-05T12:09:11.846Z,64.40
2019-04-05T12:11:46.283Z,64.40
2019-04-05T12:14:29.346Z,64.10
2019-04-05T12:16:48.845Z,64.20
2019-04-05T12:19:19.633Z,63.90
2019-04-05T12:21:50.423Z,64.00
2019-04-05T12:24:22.719Z,63.80
2019-04-05T12:26:53.385Z,63.90
2019-04-05T12:29:24.811Z,63.90
2019-04-05T12:31:56.702Z,63.50
2019-04-05T12:34:28.766Z,63.60
2019-04-05T12:37:00.000Z,63.40
2019-04-05T12:39:32.343Z,63.30
2019-04-05T12:42:03.639Z,63.10
2019-04-05T12:44:35.855Z,62.60
2019-04-05T12:47:07.140Z,62.70
2019-04-05T12:49:38.390Z,62.60
2019-04-05T12:52:21.595Z,62.70
2019-04-05T12:54:41.755Z,62.80
2019-04-05T12:57:13.747Z,62.70
2019-04-05T12:59:44.664Z,62.90
2019-04-05T13:02:19.070Z,62.80
2019-04-05T13:04:50.272Z,63.30
2019-04-05T13:07:22.804Z,63.10
2019-04-05T13:09:55.259Z,63.10
2019-04-05T13:12:27.147Z,63.30
2019-04-05T13:15:11.312Z,63.40
2019-04-05T13:17:31.695Z,63.50
2019-04-05T13:20:03.171Z,63.30
2019-04-05T13:22:35.041Z,63.50
2019-04-05T13:25:10.823Z,63.30
2019-04-05T13:27:41.515Z,62.90
2019-04-05T13:30:14.023Z,62.70
2019-04-05T13:32:45.206Z,62.30
2019-04-05T13:35:16.952Z,61.50
2019-04-05T13:37:48.216Z,62.00
2019-04-05T13:40:20.740Z,61.80
2019-04-05T13:42:52.786Z,61.30
2019-04-05T13:45:24.317Z,60.30
2019-04-05T13:47:55.559Z,59.90
2019-04-05T13:50:26.283Z,60.10
2019-04-05T13:53:04.325Z,62.00
2019-04-05T13:55:35.752Z,61.10
2019-04-05T13:58:10.707Z,60.40
2019-04-05T14:00:40.994Z,60.80
2019-04-05T14:03:11.882Z,61.00
2019-04-05T14:05:43.314Z,61.10
2019-04-05T14:08:14.382Z,61.40
2019-04-05T14:10:45.396Z,61.50
2019-04-05T14:13:16.546Z,61.80
2019-04-05T14:15:48.180Z,61.90
2019-04-05T14:18:20.782Z,62.20
2019-04-05T14:20:54.749Z,62.30
2019-04-05T14:23:26.019Z,62.10
2019-04-05T14:25:59.606Z,62.70
2019-04-05T14:28:29.957Z,62.50
2019-04-05T14:31:02.415Z,62.80
2019-04-05T14:33:33.373Z,63.10
2019-04-05T14:36:04.596Z,63.50
2019-04-05T14:38:35.400Z,63.50
2019-04-05T14:41:07.082Z,63.80
2019-04-05T14:43:38.648Z,64.10
2019-04-05T14:46:09.480Z,63.20
2019-04-05T14:48:43.300Z,63.40
2019-04-05T14:51:14.234Z,63.70
2019-04-05T14:53:45.338Z,63.10
2019-04-05T14:56:16.611Z,63.50
2019-04-05T14:58:47.924Z,62.90
2019-04-05T15:01:19.097Z,62.60
2019-04-05T15:03:50.103Z,63.80
2019-04-05T15:06:21.525Z,63.00
2019-04-05T15:08:53.100Z,63.00
2019-04-05T15:11:23.854Z,62.70
2019-04-05T15:13:55.302Z,62.70
2019-04-05T15:16:26.110Z,64.20
2019-04-05T15:18:57.011Z,63.10
2019-04-05T15:21:28.326Z,64.50
2019-04-05T15:23:59.267Z,63.40
2019-04-05T15:26:30.253Z,63.10
2019-04-05T15:29:01.588Z,63.40
2019-04-05T15:31:32.601Z,63.10
2019-04-05T15:34:03.900Z,62.90
2019-04-05T15:36:34.699Z,62.80
2019-04-05T15:39:08.084Z,63.00
2019-04-05T15:41:40.355Z,63.10
2019-04-05T15:44:12.530Z,63.10
2019-04-05T15:46:43.315Z,63.30
2019-04-05T15:49:17.100Z,63.90
2019-04-05T15:51:48.490Z,65.70
2019-04-05T15:54:19.744Z,66.50
2019-04-05T15:56:50.775Z,66.50
2019-04-05T15:59:22.053Z,65.90
2019-04-05T16:01:53.462Z,65.10
2019-04-05T16:04:25.228Z,64.80
2019-04-05T16:06:56.448Z,64.60
2019-04-05T16:09:27.417Z,64.50
2019-04-05T16:11:58.509Z,64.40
2019-04-05T16:14:29.310Z,66.20
2019-04-05T16:17:00.612Z,66.50
2019-04-05T16:19:31.413Z,65.90
2019-04-05T16:22:02.604Z,65.10
2019-04-05T16:24:33.536Z,65.80
2019-04-05T16:27:04.820Z,66.70
2019-04-05T16:29:35.716Z,67.00
2019-04-05T16:32:06.889Z,67.10
2019-04-05T16:34:38.076Z,67.20
2019-04-05T16:37:09.409Z,65.80
2019-04-05T16:39:40.415Z,67.20
2019-04-05T16:42:11.643Z,65.90
2019-04-05T16:44:42.807Z,67.40
2019-04-05T16:47:13.973Z,67.30
2019-04-05T16:49:45.107Z,66.70
2019-04-05T16:52:16.195Z,66.30
2019-04-05T16:54:47.404Z,66.10
2019-04-05T16:57:18.391Z,67.00
2019-04-05T16:59:49.453Z,67.10
2019-04-05T17:02:20.470Z,66.60
2019-04-05T17:04:51.290Z,66.70
2019-04-05T17:07:22.564Z,66.50
2019-04-05T17:09:53.660Z,69.10
2019-04-05T17:12:24.837Z,70.20
2019-04-05T17:14:55.926Z,69.40
2019-04-05T17:17:27.086Z,67.40
2019-04-05T17:19:58.077Z,67.10
2019-04-05T17:22:29.149Z,67.40
2019-04-05T17:25:01.668Z,68.60
2019-04-05T17:27:32.794Z,70.00
2019-04-05T17:30:05.499Z,68.20
2019-04-05T17:32:36.470Z,67.40
2019-04-05T17:35:08.916Z,69.50
2019-04-05T17:37:40.003Z,69.60
2019-04-05T17:40:11.303Z,67.50
2019-04-05T17:42:42.146Z,67.30
2019-04-05T17:45:13.715Z,67.50
2019-04-05T17:47:44.770Z,69.40
2019-04-05T17:50:18.343Z,67.70
2019-04-05T17:52:49.361Z,67.40
2019-04-05T17:55:20.021Z,66.70
2019-04-05T17:57:51.385Z,66.80
2019-04-05T18:00:24.472Z,67.90
2019-04-05T18:02:55.558Z,67.10
2019-04-05T18:05:26.463Z,67.70
2019-04-05T18:07:57.450Z,66.50
2019-04-05T18:10:28.487Z,67.40
2019-04-05T18:12:59.450Z,66.60
2019-04-05T18:15:30.639Z,66.90
2019-04-05T18:18:01.724Z,67.60
2019-04-05T18:20:32.911Z,67.20
2019-04-05T18:23:04.007Z,66.70
2019-04-05T18:25:34.925Z,68.80
2019-04-05T18:28:05.768Z,68.80
2019-04-05T18:30:36.683Z,69.50
2019-04-05T18:33:07.834Z,69.40
2019-04-05T18:35:38.852Z,69.70
2019-04-05T18:38:09.981Z,69.60
2019-04-05T18:40:41.056Z,68.80
2019-04-05T18:43:13.112Z,69.60
2019-04-05T18:45:43.902Z,69.20
2019-04-05T18:48:14.842Z,69.20
2019-04-05T18:50:48.318Z,69.00
2019-04-05T18:53:18.060Z,69.10
2019-04-05T18:55:49.746Z,71.10
2019-04-05T18:58:21.060Z,71.30
2019-04-05T19:00:52.123Z,71.50
2019-04-05T19:03:23.464Z,72.20
2019-04-05T19:05:54.437Z,71.10
2019-04-05T19:08:38.483Z,69.50
2019-04-05T19:10:58.176Z,69.90
2019-04-05T19:13:29.092Z,72.20
2019-04-05T19:15:59.976Z,70.60
2019-04-05T19:18:31.324Z,70.00
2019-04-05T19:21:02.452Z,72.30
2019-04-05T19:23:33.491Z,73.30
2019-04-05T19:26:04.358Z,73.20
2019-04-05T19:28:35.515Z,72.30
2019-04-05T19:48:55.068Z,73.90
2019-04-05T19:51:25.982Z,74.90
2019-04-05T19:54:01.212Z,72.60
2019-04-05T19:56:29.498Z,72.60
2019-04-05T19:59:00.746Z,70.70
2019-04-05T20:01:31.461Z,70.50
2019-04-05T20:04:02.577Z,70.90
2019-04-05T20:06:33.704Z,71.20
2019-04-05T20:09:06.275Z,70.20
2019-04-05T20:11:37.161Z,70.40
2019-04-05T20:14:08.416Z,70.70
2019-04-05T20:16:39.686Z,70.70
2019-04-05T20:19:10.584Z,72.50
2019-04-05T20:21:43.338Z,70.50
2019-04-05T20:24:14.617Z,70.30
2019-04-05T20:26:45.790Z,71.00
2019-04-05T20:29:16.838Z,70.60
2019-04-05T20:31:48.025Z,71.40
2019-04-05T20:34:19.305Z,73.50
2019-04-05T20:36:50.294Z,72.20
2019-04-05T20:39:21.505Z,71.20
2019-04-05T20:41:52.586Z,75.10
2019-04-05T20:44:23.491Z,75.50
2019-04-05T20:46:54.608Z,73.80
2019-04-05T20:49:25.739Z,72.40
2019-04-05T20:51:56.691Z,72.70
2019-04-05T20:54:27.659Z,74.10
2019-04-05T20:56:58.450Z,74.30
2019-04-05T20:59:29.452Z,74.90
2019-04-05T21:02:00.773Z,74.40
2019-04-05T21:04:31.537Z,74.70
2019-04-05T21:07:02.714Z,74.60
2019-04-05T21:09:34.218Z,74.00
2019-04-05T21:12:05.188Z,72.40
2019-04-05T21:14:36.282Z,74.00
2019-04-05T21:17:07.318Z,72.60
2019-04-05T21:19:38.372Z,71.70
2019-04-05T21:22:09.389Z,75.40
2019-04-05T21:24:40.707Z,74.40
2019-04-05T21:27:12.653Z,73.40
2019-04-05T21:29:43.883Z,74.00
2019-04-05T21:32:14.867Z,73.90
2019-04-05T21:34:46.013Z,73.20
2019-04-05T21:37:17.159Z,73.50
2019-04-05T21:39:51.642Z,73.20
2019-04-05T21:42:22.959Z,73.10
2019-04-05T21:44:54.116Z,73.80
2019-04-05T21:47:25.084Z,74.40
2019-04-05T21:49:56.466Z,77.00
2019-04-05T21:52:27.696Z,75.50
2019-04-05T21:55:00.656Z,73.30
2019-04-05T21:57:31.879Z,73.80
2019-04-05T22:00:02.777Z,74.40
2019-04-05T22:02:33.757Z,75.90
2019-04-05T22:05:05.343Z,77.70
2019-04-05T22:07:36.559Z,77.30
2019-04-05T22:10:09.105Z,75.80
2019-04-05T22:12:40.043Z,76.40
2019-04-05T22:15:11.909Z,75.80
2019-04-05T22:17:45.814Z,74.20
2019-04-05T22:20:27.592Z,74.90
2019-04-05T22:22:58.007Z,77.50
2019-04-05T22:25:29.169Z,78.50
2019-04-05T22:28:00.333Z,75.50
2019-04-05T22:30:31.441Z,74.80
2019-04-05T22:33:02.792Z,74.50
2019-04-05T22:35:33.955Z,74.70
2019-04-05T22:38:04.981Z,76.40
2019-04-05T22:40:35.758Z,75.50
2019-04-05T22:43:06.814Z,75.20
2019-04-05T22:45:37.786Z,74.30
2019-04-05T22:48:08.889Z,74.10
2019-04-05T22:50:39.656Z,74.70
2019-04-05T22:53:10.694Z,78.10
2019-04-05T22:55:41.799Z,78.00
2019-04-05T22:58:15.567Z,76.40
2019-04-05T23:00:46.602Z,75.40
2019-04-05T23:03:17.679Z,75.70
2019-04-05T23:05:48.389Z,74.70
2019-04-05T23:08:19.570Z,74.90
2019-04-05T23:10:50.313Z,78.20
2019-04-05T23:13:21.424Z,79.60
2019-04-05T23:15:52.409Z,79.00
2019-04-05T23:18:23.482Z,79.60
2019-04-05T23:20:54.654Z,77.40
2019-04-05T23:23:25.918Z,79.40
2019-04-05T23:26:01.417Z,80.00
2019-04-05T23:28:32.564Z,79.80
2019-04-05T23:31:03.685Z,80.10
2019-04-05T23:33:34.725Z,79.20
2019-04-05T23:36:05.795Z,79.80
2019-04-05T23:38:36.834Z,79.20
2019-04-05T23:41:08.173Z,79.60
2019-04-05T23:43:41.488Z,79.10
2019-04-05T23:46:12.521Z,79.20
2019-04-05T23:48:43.466Z,77.10
2019-04-05T23:51:14.590Z,76.30
2019-04-05T23:53:45.645Z,75.60
2019-04-05T23:56:16.620Z,75.70
2019-04-05T23:58:47.512Z,77.50
